New Lisbon, Wisconsin
Current Conditions -  °F | °C
As of 5:58 PM on Tuesday 25 Nov 2014 (Local Time) from KVOK Reporting Station
Few Clouds Few Clouds  
Wind Chill: 10°   Ceiling: Unl
Heat Index: 10°   Visibility: 10mi
Dew Point: 10°   Wind: 3mph
Humidity: 100%   Direction: 110°ESE
Pressure: 30.09"   Gusts: NA
Location:  43.88°N, 90.17°W
Report Text: KVOK 252358Z 11003KT 10SM FEW020 M12/M12 A3009 RMK AO2A SLP210 4/003 53006
Loading
Personal Weather Stations






























Interactive Weather Map New forecast layout! Learn more

10-Day Weather Forecast

Advertisements
Track Severe Weather on mobile